Time;durP1;ratioP1;P1;durP2;ratioP2;P2;SDS_P1;SDS_P2;PMS_P1;PMS_P2;Temp;Humidity;BMP_temperature;BMP_pressure;BME280_temperature;BME280_humidity;BME280_pressure;Samples;Min_cycle;Max_cycle;Signal;HPM_P1;HPM_P2
2021/12/14 00:01:14;;;;;;;26.27;15.30;;;;;;;8.48;100.00;102722.63;5085324;28;20111;-75
2021/12/14 00:03:43;;;;;;;25.95;15.48;;;;;;;8.47;100.00;102731.34;5017624;28;20468;-74
2021/12/14 00:06:12;;;;;;;23.17;15.20;;;;;;;8.51;100.00;102743.81;5091902;28;20052;-74
2021/12/14 00:08:50;;;;;;;24.40;16.50;;;;;;;8.47;100.00;102747.97;5087413;28;20076;-74
2021/12/14 00:14:27;;;;;;;29.05;16.50;;;;;;;8.45;100.00;102754.88;5101458;28;20028;-75
2021/12/14 00:16:57;;;;;;;20.33;14.85;;;;;;;8.41;100.00;102764.25;5082490;28;20467;-74
2021/12/14 00:19:27;;;;;;;21.70;15.35;;;;;;;8.45;100.00;102760.13;5101740;28;20027;-74
2021/12/14 00:21:55;;;;;;;21.60;14.90;;;;;;;8.48;100.00;102741.00;5104760;28;20027;-75
2021/12/14 00:24:26;;;;;;;23.73;15.38;;;;;;;8.44;100.00;102737.28;5104943;28;20035;-75
2021/12/14 00:26:58;;;;;;;26.52;16.35;;;;;;;8.49;100.00;102750.69;5107375;28;20028;-74
2021/12/14 00:29:32;;;;;;;24.05;15.98;;;;;;;8.49;100.00;102753.31;5104249;28;20466;-75
2021/12/14 00:32:02;;;;;;;23.52;16.05;;;;;;;8.43;100.00;102749.50;5093918;28;20449;-75
2021/12/14 00:34:37;;;;;;;24.48;16.73;;;;;;;8.43;100.00;102752.13;5106945;28;20051;-75
2021/12/14 00:37:07;;;;;;;25.05;16.80;;;;;;;8.47;100.00;102749.72;5104841;28;20115;-74
2021/12/14 00:39:33;;;;;;;24.05;16.70;;;;;;;8.45;100.00;102744.38;5103914;28;20032;-74
2021/12/14 00:41:59;;;;;;;24.95;17.92;;;;;;;8.42;100.00;102744.16;5102717;28;20028;-75
2021/12/14 00:44:25;;;;;;;25.13;17.98;;;;;;;8.43;100.00;102739.00;5082203;28;20482;-74
2021/12/14 00:46:52;;;;;;;26.70;18.33;;;;;;;8.42;100.00;102731.03;5101109;28;20028;-74
2021/12/14 00:49:18;;;;;;;24.50;17.73;;;;;;;8.44;100.00;102726.81;5104627;28;20024;-75
2021/12/14 00:51:44;;;;;;;29.42;18.95;;;;;;;8.38;100.00;102727.38;5087721;28;20074;-75
2021/12/14 00:54:12;;;;;;;28.27;19.05;;;;;;;8.40;100.00;102733.59;5088751;28;20032;-74
2021/12/14 00:56:40;;;;;;;27.05;19.10;;;;;;;8.40;100.00;102725.72;5101016;28;20043;-75
2021/12/14 00:59:09;;;;;;;31.63;19.58;;;;;;;8.48;100.00;102720.00;5104203;28;20092;-74
2021/12/14 01:01:40;;;;;;;29.98;19.73;;;;;;;8.39;100.00;102718.66;5083065;28;20035;-75
2021/12/14 01:04:10;;;;;;;32.30;20.38;;;;;;;8.33;100.00;102697.34;5107196;28;20103;-74
2021/12/14 01:06:44;;;;;;;31.95;20.85;;;;;;;8.31;100.00;102691.09;5082475;28;20046;-75
2021/12/14 01:09:10;;;;;;;;;;;;;;;8.32;100.00;102699.88;5104078;28;20023;-75
2021/12/14 01:11:43;;;;;;;33.50;20.52;;;;;;;8.31;100.00;102693.72;5103203;28;19942;-75
2021/12/14 01:14:19;;;;;;;32.22;20.73;;;;;;;8.28;100.00;102685.69;5083940;28;20449;-75
2021/12/14 01:17:05;;;;;;;33.13;21.77;;;;;;;8.33;100.00;102692.09;5090333;28;20502;-74
2021/12/14 01:19:32;;;;;;;32.13;20.65;;;;;;;8.32;100.00;102685.03;5104460;28;20028;-75
2021/12/14 01:25:29;;;;;;;31.35;20.35;;;;;;;8.35;100.00;102679.97;5102077;28;20038;-74
2021/12/14 01:28:10;;;;;;;31.20;20.83;;;;;;;8.34;100.00;102675.56;5080837;28;20411;-74
2021/12/14 01:30:43;;;;;;;29.30;20.90;;;;;;;8.36;100.00;102676.53;5102829;28;20100;-75
2021/12/14 01:33:12;;;;;;;28.85;19.88;;;;;;;8.35;100.00;102689.56;5101250;28;20032;-75
2021/12/14 01:35:42;;;;;;;32.17;21.95;;;;;;;8.31;100.00;102682.34;5101001;28;20074;-75
2021/12/14 01:40:59;;;;;;;29.15;20.60;;;;;;;8.32;100.00;102702.50;5097212;28;20399;-75
2021/12/14 01:43:34;;;;;;;31.85;21.67;;;;;;;8.31;100.00;102704.22;5107205;28;20055;-74
2021/12/14 01:46:05;;;;;;;29.90;21.48;;;;;;;8.35;100.00;102705.28;5105464;28;20054;-75
2021/12/14 01:48:31;;;;;;;31.40;21.50;;;;;;;8.34;100.00;102704.41;5086563;28;20020;-75
2021/12/14 01:51:00;;;;;;;32.40;22.40;;;;;;;8.30;100.00;102696.25;5079397;28;20365;-75
2021/12/14 01:53:27;;;;;;;34.63;22.98;;;;;;;8.29;100.00;102700.63;5097671;28;20032;-75
2021/12/14 01:56:03;;;;;;;32.53;20.67;;;;;;;8.29;100.00;102684.88;5080631;28;20028;-75
2021/12/14 01:58:38;;;;;;;32.40;22.73;;;;;;;8.32;100.00;102679.78;5078470;28;20048;-75
2021/12/14 02:01:19;;;;;;;32.50;21.17;;;;;;;8.29;100.00;102698.00;5098678;28;20385;-74
2021/12/14 02:03:51;;;;;;;34.28;22.08;;;;;;;8.29;100.00;102700.63;5107220;28;20160;-75
2021/12/14 02:06:23;;;;;;;33.97;21.90;;;;;;;8.26;100.00;102708.28;5107279;28;20122;-74
2021/12/14 02:08:58;;;;;;;34.13;22.67;;;;;;;8.31;100.00;102698.97;5111973;28;20020;-75
2021/12/14 02:11:25;;;;;;;32.88;22.08;;;;;;;8.31;100.00;102704.22;5110025;28;20425;-74
2021/12/14 02:13:54;;;;;;;35.83;22.35;;;;;;;8.23;100.00;102701.19;5107690;28;20035;-75
2021/12/14 02:16:21;;;;;;;35.85;22.67;;;;;;;8.26;100.00;102705.66;5078065;28;20071;-75
2021/12/14 02:18:50;;;;;;;31.35;21.80;;;;;;;8.34;100.00;102691.28;5080733;28;20546;-75
2021/12/14 02:21:22;;;;;;;33.38;21.42;;;;;;;8.24;100.00;102686.34;5100454;28;20042;-75
2021/12/14 02:23:51;;;;;;;33.50;22.17;;;;;;;8.24;100.00;102691.59;5101233;28;20096;-74
2021/12/14 02:26:21;;;;;;;33.22;22.13;;;;;;;8.24;100.00;102691.59;5086896;28;20039;-75
2021/12/14 02:28:47;;;;;;;34.08;23.33;;;;;;;8.28;100.00;102698.81;5110964;28;20031;-75
2021/12/14 02:31:17;;;;;;;31.23;22.58;;;;;;;8.25;100.00;102688.16;5103265;28;20032;-75
2021/12/14 02:33:47;;;;;;;34.22;22.92;;;;;;;8.30;100.00;102693.63;5097778;28;20024;-75
2021/12/14 02:36:20;;;;;;;34.80;22.58;;;;;;;8.28;100.00;102694.44;5100496;28;20048;-75
2021/12/14 02:38:49;;;;;;;33.40;22.83;;;;;;;8.27;100.00;102695.28;5102316;28;20032;-75
2021/12/14 02:41:15;;;;;;;36.55;22.23;;;;;;;8.27;100.00;102683.88;5085103;28;20023;-75
2021/12/14 02:43:45;;;;;;;30.83;20.45;;;;;;;8.22;100.00;102688.88;5090496;28;20131;-75
2021/12/14 02:46:18;;;;;;;35.38;23.20;;;;;;;8.20;100.00;102689.59;5088881;28;20066;-75
2021/12/14 02:48:47;;;;;;;31.75;22.10;;;;;;;8.23;100.00;102679.28;5103096;28;20087;-75
2021/12/14 02:51:18;;;;;;;33.25;21.67;;;;;;;8.14;100.00;102678.75;5103159;28;20031;-75
2021/12/14 02:53:46;;;;;;;33.72;22.33;;;;;;;8.16;100.00;102670.16;5098306;28;20039;-74
2021/12/14 02:56:15;;;;;;;34.58;22.67;;;;;;;8.16;100.00;102671.91;5083005;28;20031;-74
2021/12/14 02:58:42;;;;;;;34.25;23.15;;;;;;;8.16;100.00;102670.16;5101568;28;20036;-75
2021/12/14 03:01:10;;;;;;;34.78;23.55;;;;;;;8.13;100.00;102667.38;5083275;28;20028;-75
2021/12/14 03:03:36;;;;;;;33.90;23.63;;;;;;;8.12;100.00;102662.06;5082667;28;20106;-75
2021/12/14 03:06:09;;;;;;;35.35;22.85;;;;;;;8.09;100.00;102674.16;5099418;28;20146;-74
2021/12/14 03:08:43;;;;;;;33.30;22.70;;;;;;;8.15;100.00;102670.97;5083461;28;20020;-74
2021/12/14 03:11:11;;;;;;;33.35;22.05;;;;;;;8.13;100.00;102679.59;5090943;28;20069;-75
2021/12/14 03:13:41;;;;;;;34.35;22.13;;;;;;;8.17;100.00;102684.19;5099247;28;20032;-75
2021/12/14 03:16:11;;;;;;;30.92;21.88;;;;;;;8.13;100.00;102682.22;5090882;28;20114;-75
2021/12/14 03:18:42;;;;;;;34.65;22.67;;;;;;;8.12;100.00;102680.41;5103030;28;20030;-75
2021/12/14 03:21:14;;;;;;;34.50;23.40;;;;;;;8.08;100.00;102680.25;5099160;28;20035;-75
2021/12/14 03:23:44;;;;;;;35.38;23.25;;;;;;;8.08;100.00;102681.94;5101251;28;20031;-75
2021/12/14 03:26:13;;;;;;;34.42;21.35;;;;;;;8.10;100.00;102682.94;5083809;28;20496;-75
2021/12/14 03:28:40;;;;;;;32.65;22.52;;;;;;;8.10;100.00;102690.81;5087444;28;20048;-75
2021/12/14 03:31:33;;;;;;;34.60;21.95;;;;;;;8.08;100.00;102676.69;5083813;28;20024;-75
2021/12/14 03:34:01;;;;;;;33.22;22.23;;;;;;;8.06;100.00;102691.47;5093600;28;20028;-75
2021/12/14 03:36:37;;;;;;;33.50;22.13;;;;;;;8.06;100.00;102697.59;5103673;28;20055;-75
2021/12/14 03:39:12;;;;;;;35.70;22.65;;;;;;;8.12;100.00;102701.38;5104439;28;20023;-74
2021/12/14 03:41:42;;;;;;;32.55;21.55;;;;;;;8.13;100.00;102687.47;5077258;28;20483;-75
2021/12/14 03:44:11;;;;;;;32.15;22.17;;;;;;;8.06;100.00;102692.34;5080912;28;20042;-75
2021/12/14 03:47:07;;;;;;;34.15;22.23;;;;;;;8.07;100.00;102691.53;5098116;28;20023;-75
2021/12/14 03:49:36;;;;;;;37.42;22.10;;;;;;;8.01;100.00;102691.19;5071789;28;20035;-75
2021/12/14 03:52:07;;;;;;;30.38;21.20;;;;;;;8.04;100.00;102701.81;5109161;28;20023;-75
2021/12/14 03:54:32;;;;;;;35.40;22.60;;;;;;;8.03;100.00;102694.81;5098991;28;20032;-75
2021/12/14 03:56:58;;;;;;;34.72;21.83;;;;;;;8.08;100.00;102698.59;5088615;28;20375;-75
2021/12/14 03:59:29;;;;;;;34.47;21.33;;;;;;;8.04;100.00;102700.94;5077813;28;20475;-75
2021/12/14 04:01:57;;;;;;;33.55;20.83;;;;;;;8.04;100.00;102688.72;5097049;28;20028;-75
2021/12/14 04:04:31;;;;;;;32.78;21.13;;;;;;;8.06;100.00;102684.47;5098790;28;20024;-74
2021/12/14 04:06:59;;;;;;;34.05;21.23;;;;;;;8.00;100.00;102675.38;5105003;28;20027;-75
2021/12/14 04:09:28;;;;;;;29.85;20.52;;;;;;;8.01;100.00;102692.91;5079170;28;20107;-75
2021/12/14 04:11:55;;;;;;;29.95;20.38;;;;;;;8.02;100.00;102689.47;5104403;28;20046;-75
2021/12/14 04:14:21;;;;;;;29.85;20.77;;;;;;;8.00;100.00;102686.75;5101324;28;20047;-75
2021/12/14 04:16:49;;;;;;;28.40;19.95;;;;;;;7.99;100.00;102690.22;5101869;28;20027;-75
2021/12/14 04:19:21;;;;;;;28.85;19.63;;;;;;;8.01;100.00;102699.03;5100987;28;20417;-74
2021/12/14 04:21:48;;;;;;;30.45;19.65;;;;;;;8.04;100.00;102706.19;5080931;28;20032;-74
2021/12/14 04:24:19;;;;;;;29.08;19.40;;;;;;;7.98;100.00;102696.25;5103567;28;20019;-75
2021/12/14 04:26:46;;;;;;;30.67;18.92;;;;;;;8.00;100.00;102691.09;5101180;28;20032;-74
2021/12/14 04:29:13;;;;;;;27.75;18.63;;;;;;;7.94;100.00;102691.66;5079019;28;20035;-75
2021/12/14 04:31:42;;;;;;;27.15;17.88;;;;;;;7.97;100.00;102686.56;5097403;28;20089;-75
2021/12/14 04:34:09;;;;;;;31.27;19.80;;;;;;;8.00;100.00;102689.38;5085368;28;20106;-75
2021/12/14 04:36:34;;;;;;;30.88;19.80;;;;;;;7.96;100.00;102700.50;5103329;28;20523;-75
2021/12/14 04:39:33;;;;;;;30.67;19.15;;;;;;;7.93;100.00;102695.09;5103502;28;20144;-74
2021/12/14 04:53:16;;;;;;;28.83;17.83;;;;;;;7.92;100.00;102672.28;5104545;28;20084;-75
2021/12/14 04:55:44;;;;;;;30.10;18.38;;;;;;;7.89;100.00;102669.50;5103737;28;20352;-74
2021/12/14 04:58:11;;;;;;;27.08;18.48;;;;;;;7.98;100.00;102672.66;5088992;28;20057;-74
2021/12/14 05:00:45;;;;;;;27.30;17.05;;;;;;;7.98;100.00;102666.53;5102069;28;20032;-75
2021/12/14 05:03:15;;;;;;;26.88;17.42;;;;;;;7.95;100.00;102672.50;5097048;28;20476;-74
2021/12/14 05:05:48;;;;;;;26.58;17.42;;;;;;;7.89;100.00;102672.13;5090972;28;20488;-75
2021/12/14 05:10:46;;;;;;;26.85;17.75;;;;;;;7.92;100.00;102662.75;5103217;28;20031;-75
2021/12/14 05:13:12;;;;;;;25.60;17.15;;;;;;;7.93;100.00;102661.00;5078024;28;20066;-75
2021/12/14 05:15:41;;;;;;;26.92;16.38;;;;;;;7.86;100.00;102666.72;5091257;28;20110;-74
2021/12/14 05:18:11;;;;;;;27.25;17.15;;;;;;;7.84;100.00;102671.88;5085889;28;20032;-75
2021/12/14 05:20:44;;;;;;;25.00;15.90;;;;;;;7.84;100.00;102663.09;5085567;28;20024;-74
2021/12/14 05:23:10;;;;;;;30.53;17.47;;;;;;;7.89;100.00;102657.28;5102019;28;20063;-75
2021/12/14 05:25:38;;;;;;;25.60;16.33;;;;;;;7.88;100.00;102659.84;5085000;28;20031;-75
2021/12/14 05:28:05;;;;;;;25.85;17.25;;;;;;;7.90;100.00;102658.22;5089888;28;20024;-75
2021/12/14 05:30:41;;;;;;;25.30;17.15;;;;;;;7.91;100.00;102671.41;5099286;28;20115;-75
2021/12/14 05:33:18;;;;;;;28.33;16.90;;;;;;;7.90;100.00;102664.34;5082086;28;20437;-75
2021/12/14 05:35:48;;;;;;;28.73;17.73;;;;;;;7.86;100.00;102666.72;5106329;28;20501;-74
2021/12/14 05:38:21;;;;;;;27.67;16.67;;;;;;;7.80;100.00;102666.34;5088363;28;20063;-75
2021/12/14 05:43:27;;;;;;;27.77;17.52;;;;;;;7.88;100.00;102680.81;5101174;28;20051;-74
2021/12/14 05:45:56;;;;;;;23.63;16.13;;;;;;;7.83;100.00;102671.81;5084811;28;20123;-74
2021/12/14 05:48:34;;;;;;;27.63;16.58;;;;;;;7.87;100.00;102676.41;5099341;28;20024;-74
2021/12/14 05:51:05;;;;;;;26.88;16.50;;;;;;;7.89;100.00;102677.38;5098326;28;20055;-73
2021/12/14 05:53:38;;;;;;;26.05;16.42;;;;;;;7.83;100.00;102671.81;5080341;28;20020;-74
2021/12/14 05:56:10;;;;;;;28.80;17.83;;;;;;;7.83;100.00;102684.91;5081120;28;20023;-74
2021/12/14 05:58:37;;;;;;;26.60;16.73;;;;;;;7.80;100.00;102683.00;5083498;28;20399;-74
2021/12/14 06:01:07;;;;;;;25.45;16.85;;;;;;;7.80;100.00;102692.56;5080710;28;20082;-74
2021/12/14 06:03:38;;;;;;;29.48;16.30;;;;;;;7.79;100.00;102690.78;5086692;28;20047;-74
2021/12/14 06:06:14;;;;;;;26.48;16.17;;;;;;;7.85;100.00;102688.50;5080970;28;21594;-73
2021/12/14 06:08:40;;;;;;;28.73;17.25;;;;;;;7.87;100.00;102686.88;5095830;28;20020;-75
2021/12/14 06:11:05;;;;;;;26.02;16.50;;;;;;;7.86;100.00;102687.69;5097870;28;20080;-75
2021/12/14 06:13:40;;;;;;;29.80;17.73;;;;;;;7.76;100.00;102697.63;5103712;28;20024;-76
2021/12/14 06:16:06;;;;;;;28.75;17.15;;;;;;;7.78;100.00;102700.34;5101661;28;20027;-75
2021/12/14 06:18:31;;;;;;;31.48;17.00;;;;;;;7.87;100.00;102697.38;5094968;28;20030;-75
2021/12/14 06:20:57;;;;;;;28.83;17.02;;;;;;;7.82;100.00;102694.47;5104273;28;20024;-79
2021/12/14 06:23:28;;;;;;;30.95;17.35;;;;;;;7.81;100.00;102695.28;5084509;28;20772;-72
2021/12/14 06:25:56;;;;;;;28.73;17.05;;;;;;;7.85;100.00;102697.25;5103489;28;20107;-73
2021/12/14 06:28:23;;;;;;;27.42;15.57;;;;;;;7.81;100.00;102699.63;5098017;28;20020;-73
2021/12/14 06:30:49;;;;;;;28.58;17.00;;;;;;;7.81;100.00;102710.09;5101894;28;20078;-74
2021/12/14 06:33:14;;;;;;;29.50;18.08;;;;;;;7.82;100.00;102704.06;5102381;28;20063;-74
2021/12/14 06:35:46;;;;;;;27.48;17.38;;;;;;;7.74;100.00;102709.72;5069022;28;20047;-74
2021/12/14 06:38:28;;;;;;;31.85;17.50;;;;;;;7.79;100.00;102704.78;5058754;28;20430;-74
2021/12/14 06:41:05;;;;;;;27.40;16.77;;;;;;;7.82;100.00;102697.09;5054056;28;20024;-75
2021/12/14 06:43:32;;;;;;;32.92;18.38;;;;;;;7.80;100.00;102710.91;5058984;28;20040;-75
2021/12/14 06:46:08;;;;;;;31.08;17.65;;;;;;;7.80;100.00;102711.84;5058979;28;20036;-75
2021/12/14 06:48:40;;;;;;;27.75;17.77;;;;;;;7.82;100.00;102718.06;5059579;28;20097;-75
2021/12/14 06:51:20;;;;;;;29.67;17.92;;;;;;;7.81;100.00;102721.47;5060816;28;20032;-74
2021/12/14 06:53:51;;;;;;;30.10;17.45;;;;;;;7.84;100.00;102733.88;5062116;28;20051;-74
2021/12/14 06:56:24;;;;;;;32.03;18.30;;;;;;;7.85;100.00;102728.72;5059931;28;20029;-75
2021/12/14 06:58:56;;;;;;;30.45;17.85;;;;;;;7.78;100.00;102717.81;5057209;28;20481;-75
2021/12/14 07:01:53;;;;;;;30.92;18.20;;;;;;;7.82;100.00;102727.66;5061985;28;20056;-76
2021/12/14 07:04:26;;;;;;;33.33;18.77;;;;;;;7.82;100.00;102722.41;5053377;28;20052;-73
2021/12/14 07:07:05;;;;;;;32.33;18.92;;;;;;;7.79;100.00;102728.38;5054650;28;20048;-74
2021/12/14 07:09:36;;;;;;;36.03;18.52;;;;;;;7.78;100.00;102731.78;5071775;28;20055;-75
2021/12/14 07:12:07;;;;;;;33.15;18.33;;;;;;;7.81;100.00;102728.44;5055581;28;20025;-76
2021/12/14 07:14:42;;;;;;;35.08;19.65;;;;;;;7.83;100.00;102730.34;5059745;28;20031;-76
2021/12/14 07:17:21;;;;;;;32.80;19.00;;;;;;;7.79;100.00;102728.38;5059196;28;20370;-76
2021/12/14 07:19:53;;;;;;;32.15;19.58;;;;;;;7.83;100.00;102729.47;5061553;28;20090;-76
2021/12/14 07:22:44;;;;;;;33.28;18.33;;;;;;;7.82;100.00;102733.78;5060439;28;20103;-76
2021/12/14 07:25:19;;;;;;;33.95;18.58;;;;;;;7.84;100.00;102736.47;5058158;28;20034;-77
2021/12/14 07:27:47;;;;;;;40.25;19.67;;;;;;;7.85;100.00;102738.31;5057962;28;20036;-76
2021/12/14 07:30:15;;;;;;;36.55;21.00;;;;;;;7.84;100.00;102742.66;5064741;28;20108;-77
2021/12/14 07:32:41;;;;;;;35.47;19.60;;;;;;;7.85;100.00;102749.69;5055751;28;20087;-77
2021/12/14 07:35:28;;;;;;;33.72;18.67;;;;;;;7.86;100.00;102751.50;5061443;28;20496;-77
2021/12/14 07:37:56;;;;;;;36.90;19.25;;;;;;;7.90;100.00;102758.72;5056818;28;20024;-77
2021/12/14 07:40:31;;;;;;;39.38;20.58;;;;;;;7.86;100.00;102761.09;5062318;28;20024;-76
2021/12/14 07:43:25;;;;;;;38.03;19.88;;;;;;;7.89;100.00;102761.25;5057664;28;20028;-76
2021/12/14 07:45:56;;;;;;;37.88;19.98;;;;;;;7.88;100.00;102755.13;5057641;28;20075;-76
2021/12/14 07:48:42;;;;;;;40.95;21.05;;;;;;;7.85;100.00;102760.16;5062816;28;20041;-75
2021/12/14 07:51:07;;;;;;;37.53;20.83;;;;;;;7.89;100.00;102766.50;5054574;28;20544;-76
2021/12/14 07:53:41;;;;;;;36.17;20.08;;;;;;;7.95;100.00;102772.13;5065149;28;20032;-77
2021/12/14 07:56:14;;;;;;;38.83;20.40;;;;;;;7.92;100.00;102775.47;5060906;28;20078;-76
2021/12/14 07:58:44;;;;;;;39.03;21.48;;;;;;;7.91;100.00;102771.00;5060820;28;20144;-77
2021/12/14 08:01:09;;;;;;;39.42;21.65;;;;;;;7.88;100.00;102777.78;5063919;28;20036;-76
2021/12/14 08:03:37;;;;;;;40.45;21.92;;;;;;;7.86;100.00;102774.19;5066693;28;20476;-77
2021/12/14 08:06:09;;;;;;;45.90;22.85;;;;;;;7.84;100.00;102778.41;5067600;28;20054;-76
2021/12/14 08:08:46;;;;;;;46.17;22.77;;;;;;;7.84;100.00;102783.66;5058935;28;20032;-76
2021/12/14 08:11:29;;;;;;;48.03;23.55;;;;;;;7.81;100.00;102780.88;5063989;28;20082;-77
2021/12/14 08:14:17;;;;;;;46.20;22.55;;;;;;;7.80;100.00;102795.69;5063020;28;20036;-76
2021/12/14 08:16:53;;;;;;;51.03;23.35;;;;;;;7.85;100.00;102788.09;5061783;28;20060;-76
2021/12/14 08:19:44;;;;;;;52.47;24.23;;;;;;;7.81;100.00;102789.63;5058149;28;20082;-76
2021/12/14 08:22:29;;;;;;;52.08;24.02;;;;;;;7.82;100.00;102795.78;5070837;28;20106;-77
2021/12/14 08:24:55;;;;;;;48.40;23.45;;;;;;;7.85;100.00;102802.09;5057648;28;20074;-76
2021/12/14 08:27:22;;;;;;;49.70;24.92;;;;;;;7.86;100.00;102792.53;5062586;28;20044;-75
2021/12/14 08:29:53;;;;;;;54.72;24.38;;;;;;;7.86;100.00;102793.44;5055175;28;20548;-76
2021/12/14 08:32:25;;;;;;;52.75;26.58;;;;;;;7.88;100.00;102799.69;5063860;28;20024;-77
2021/12/14 08:34:53;;;;;;;51.88;25.08;;;;;;;7.89;100.00;102801.47;5061333;28;20029;-76
2021/12/14 08:37:20;;;;;;;51.92;24.33;;;;;;;7.90;100.00;102808.53;5084716;28;20024;-76
2021/12/14 08:40:01;;;;;;;50.33;24.85;;;;;;;7.93;100.00;102810.44;5105589;28;20398;-76
2021/12/14 08:43:00;;;;;;;49.75;24.67;;;;;;;8.02;100.00;102810.06;5085446;28;20035;-76
2021/12/14 08:45:33;;;;;;;48.88;24.35;;;;;;;8.00;100.00;102814.31;5095416;28;20031;-76
2021/12/14 08:48:02;;;;;;;46.27;24.77;;;;;;;8.00;100.00;102806.44;5086945;28;20626;-76
2021/12/14 08:50:32;;;;;;;51.08;24.85;;;;;;;7.99;100.00;102804.63;5104649;28;20101;-76
2021/12/14 08:52:59;;;;;;;51.85;25.33;;;;;;;8.00;100.00;102816.94;5080829;28;20422;-75
2021/12/14 08:55:31;;;;;;;51.83;25.48;;;;;;;8.06;100.00;102815.59;5100587;28;20467;-75
2021/12/14 08:57:56;;;;;;;49.92;24.92;;;;;;;8.07;100.00;102820.00;5092565;28;20444;-76
2021/12/14 09:00:29;;;;;;;54.17;24.52;;;;;;;8.06;100.00;102810.34;5098289;28;20031;-75
2021/12/14 09:02:59;;;;;;;49.05;25.48;;;;;;;8.09;100.00;102814.84;5112742;28;20030;-76
2021/12/14 09:05:30;;;;;;;50.67;25.13;;;;;;;8.09;100.00;102809.63;5082204;28;20743;-75
2021/12/14 09:07:56;;;;;;;51.78;24.77;;;;;;;8.10;100.00;102807.06;5083245;28;20309;-76
2021/12/14 09:10:25;;;;;;;52.72;24.83;;;;;;;8.17;100.00;102807.44;5102664;28;20725;-76
2021/12/14 09:12:56;;;;;;;56.35;24.95;;;;;;;8.16;100.00;102798.66;5074818;28;20043;-76
2021/12/14 09:15:27;;;;;;;45.55;25.40;;;;;;;8.16;100.00;102801.28;5081420;28;20145;-76
2021/12/14 09:17:55;;;;;;;50.05;25.67;;;;;;;8.17;100.00;102805.72;5083797;28;20032;-76
2021/12/14 09:20:34;;;;;;;49.97;24.85;;;;;;;8.17;100.00;102804.81;5079167;28;20361;-76
2021/12/14 09:23:13;;;;;;;52.67;24.80;;;;;;;8.17;100.00;102803.09;5091649;28;20031;-76
2021/12/14 09:25:39;;;;;;;50.65;24.13;;;;;;;8.25;100.00;102814.03;5095927;28;20085;-76
2021/12/14 09:28:08;;;;;;;50.83;24.48;;;;;;;8.30;100.00;102809.03;5089269;28;20036;-76
2021/12/14 09:30:43;;;;;;;48.13;23.60;;;;;;;8.32;100.00;102816.19;5084215;28;20034;-77
2021/12/14 09:33:09;;;;;;;52.90;24.40;;;;;;;8.27;100.00;102815.94;5080214;28;20352;-76
2021/12/14 09:35:37;;;;;;;51.05;24.95;;;;;;;8.34;100.00;102818.91;5100607;28;20043;-76
2021/12/14 09:38:08;;;;;;;47.90;25.08;;;;;;;8.35;100.00;102815.47;5096227;28;20363;-76
2021/12/14 09:40:43;;;;;;;52.75;25.85;;;;;;;8.34;100.00;102814.56;5100764;28;20034;-76
2021/12/14 09:43:09;;;;;;;45.95;23.55;;;;;;;8.43;100.00;102816.81;5096975;28;20047;-76
2021/12/14 09:45:42;;;;;;;42.78;23.50;;;;;;;8.42;100.00;102804.50;5095816;28;20503;-77
2021/12/14 09:48:11;;;;;;;45.92;24.58;;;;;;;8.49;100.00;102822.44;5101239;28;20024;-76
2021/12/14 09:50:37;;;;;;;40.88;21.10;;;;;;;8.55;100.00;102811.41;5096078;28;20452;-76
2021/12/14 09:53:08;;;;;;;47.20;22.48;;;;;;;8.56;100.00;102813.19;5085586;28;20059;-76
2021/12/14 09:55:38;;;;;;;42.08;22.10;;;;;;;8.49;100.00;102808.41;5096451;28;20384;-76
2021/12/14 09:58:08;;;;;;;41.25;21.05;;;;;;;8.52;100.00;102808.56;5106999;28;20039;-76
2021/12/14 10:00:36;;;;;;;42.88;22.45;;;;;;;8.63;100.00;102804.84;5102179;28;20522;-75
2021/12/14 10:03:05;;;;;;;45.35;24.15;;;;;;;8.64;100.00;102798.81;5098875;28;20054;-75
2021/12/14 10:05:38;;;;;;;41.63;21.63;;;;;;;8.64;100.00;102804.06;5080688;28;20024;-75
2021/12/14 10:08:14;;;;;;;39.83;21.13;;;;;;;8.73;100.00;102815.03;5103259;27;20039;-75
2021/12/14 10:10:49;;;;;;;45.55;22.23;;;;;;;8.69;100.00;102810.44;5108620;28;20027;-75
2021/12/14 10:13:14;;;;;;;40.83;21.13;;;;;;;8.82;100.00;102813.75;5086603;28;20051;-76
2021/12/14 10:15:48;;;;;;;40.35;21.58;;;;;;;8.78;100.00;102808.31;5099465;28;20364;-75
2021/12/14 10:18:39;;;;;;;45.70;22.30;;;;;;;8.77;100.00;102806.50;5101583;28;20048;-75
2021/12/14 10:21:16;;;;;;;43.80;22.33;;;;;;;8.80;100.00;102815.38;5103148;28;20043;-75
2021/12/14 10:23:42;;;;;;;42.65;21.70;;;;;;;8.78;100.00;102808.31;5088389;28;20024;-76
2021/12/14 10:26:09;;;;;;;50.72;23.15;;;;;;;8.78;100.00;102817.94;5087202;28;20036;-78
2021/12/14 10:28:38;;;;;;;41.28;22.48;;;;;;;8.70;100.00;102813.97;5078412;28;20027;-74
2021/12/14 10:31:16;;;;;;;45.13;22.45;;;;;;;8.72;100.00;102821.13;5107414;28;20019;-76
2021/12/14 10:33:43;;;;;;;42.40;23.67;;;;;;;8.70;100.00;102814.88;5100495;28;20035;-75
2021/12/14 10:36:23;;;;;;;47.25;23.45;;;;;;;8.57;100.00;102815.00;5110042;28;20093;-75
2021/12/14 10:39:39;;;;;;;47.80;23.65;;;;;;;8.56;100.00;102810.56;5094519;28;20506;-75
2021/12/14 10:44:37;;;;;;;55.22;24.38;;;;;;;8.53;100.00;102820.88;5097081;28;20063;-76
2021/12/14 10:47:05;;;;;;;48.28;24.50;;;;;;;8.52;100.00;102820.00;5109686;28;20032;-76
2021/12/14 10:49:30;;;;;;;47.63;24.27;;;;;;;8.50;100.00;102813.75;5100208;28;20028;-75
2021/12/14 10:52:04;;;;;;;57.80;24.70;;;;;;;8.54;100.00;102814.84;5111755;28;20038;-76
2021/12/14 10:54:30;;;;;;;53.10;25.73;;;;;;;8.52;100.00;102819.06;5110056;28;20116;-73
2021/12/14 10:57:11;;;;;;;50.60;26.13;;;;;;;8.54;100.00;102817.47;5083736;28;20036;-73
2021/12/14 10:59:41;;;;;;;52.67;25.85;;;;;;;8.54;100.00;102815.72;5082540;28;20024;-73
2021/12/14 11:02:12;;;;;;;57.05;24.50;;;;;;;8.61;100.00;102814.34;5093998;28;20036;-73
2021/12/14 11:04:51;;;;;;;52.05;25.88;;;;;;;8.62;100.00;102810.91;5083989;28;20067;-73
2021/12/14 11:07:24;;;;;;;52.78;25.88;;;;;;;8.64;100.00;102811.00;5107933;28;20084;-75
2021/12/14 11:10:03;;;;;;;44.85;24.65;;;;;;;8.65;100.00;102805.81;5103539;28;20035;-75
2021/12/14 11:12:34;;;;;;;55.33;26.88;;;;;;;8.62;100.00;102808.28;5098453;28;20030;-73
2021/12/14 11:15:24;;;;;;;51.28;25.35;;;;;;;8.55;100.00;102809.66;5103012;28;20040;-72
2021/12/14 11:20:45;;;;;;;61.60;25.50;;;;;;;8.68;100.00;102806.03;5080616;28;20399;-73
2021/12/14 11:23:21;;;;;;;43.20;23.30;;;;;;;8.69;100.00;102806.91;5097568;28;20081;-73
2021/12/14 11:25:50;;;;;;;52.28;25.73;;;;;;;8.68;100.00;102806.03;5101368;28;20055;-74
2021/12/14 11:28:21;;;;;;;52.72;25.30;;;;;;;8.65;100.00;102805.81;5081942;28;20492;-74
2021/12/14 11:31:04;;;;;;;50.70;24.95;;;;;;;8.69;100.00;102804.28;5102860;28;20024;-74
2021/12/14 11:33:34;;;;;;;57.45;23.85;;;;;;;8.73;100.00;102812.41;5106657;28;20076;-74
2021/12/14 11:36:14;;;;;;;50.15;23.58;;;;;;;8.71;100.00;102803.56;5103410;28;20039;-74
2021/12/14 11:38:48;;;;;;;50.78;24.65;;;;;;;8.72;100.00;102796.59;5109432;28;20504;-72
2021/12/14 11:41:29;;;;;;;52.60;25.13;;;;;;;8.72;100.00;102800.13;5094475;28;20080;-71
2021/12/14 11:44:08;;;;;;;54.38;25.00;;;;;;;8.74;100.00;102801.09;5104408;28;21753;-71
2021/12/14 11:46:52;;;;;;;47.50;24.30;;;;;;;8.76;100.00;102799.47;5090600;28;20131;-71
2021/12/14 11:49:19;;;;;;;53.05;24.25;;;;;;;8.74;100.00;102806.34;5092189;28;20462;-72
2021/12/14 11:51:45;;;;;;;50.05;24.58;;;;;;;8.77;100.00;102793.38;5091206;28;20046;-72
2021/12/14 11:54:14;;;;;;;49.90;24.63;;;;;;;8.82;100.00;102795.38;5101624;28;20028;-71
2021/12/14 11:56:39;;;;;;;50.95;23.85;;;;;;;8.78;100.00;102797.81;5102762;28;20077;-72
2021/12/14 11:59:07;;;;;;;49.42;22.98;;;;;;;8.78;100.00;102792.56;5100738;28;20028;-72
2021/12/14 12:01:51;;;;;;;47.65;22.95;;;;;;;8.81;100.00;102802.34;5100705;28;20051;-72